Time;durP1;ratioP1;P1;durP2;ratioP2;P2;SDS_P1;SDS_P2;PMS_P1;PMS_P2;Temp;Humidity;BMP_temperature;BMP_pressure;BME280_temperature;BME280_humidity;BME280_pressure;Samples;Min_cycle;Max_cycle;Signal;HPM_P1;HPM_P2
2022/04/29 00:04:23;;;;;;;16.23;12.27;;;;;;;;;;10355918;28;20449;-64
2022/04/29 00:09:22;;;;;;;13.15;11.68;;;;;;;;;;10355504;28;20102;-65
2022/04/29 00:14:23;;;;;;;13.13;11.73;;;;;;;;;;10355090;28;20078;-65
2022/04/29 00:19:21;;;;;;;13.77;11.85;;;;;;;;;;10355341;28;20467;-64
2022/04/29 00:24:20;;;;;;;11.80;10.63;;;;;;;;;;10355504;28;20543;-65
2022/04/29 00:29:18;;;;;;;12.57;11.38;;;;;;;;;;10355366;28;20071;-63
2022/04/29 00:34:18;;;;;;;12.85;11.55;;;;;;;;;;10355223;28;20071;-64
2022/04/29 00:39:18;;;;;;;12.00;10.73;;;;;;;;;;10355238;28;20456;-63
2022/04/29 00:44:17;;;;;;;11.23;10.20;;;;;;;;;;10353654;28;20060;-65
2022/04/29 00:49:16;;;;;;;11.80;10.65;;;;;;;;;;10355235;28;20055;-65
2022/04/29 00:54:31;;;;;;;10.80;9.70;;;;;;;;;;10344409;28;20446;-64
2022/04/29 00:59:34;;;;;;;10.50;9.45;;;;;;;;;;10353373;28;20071;-65
2022/04/29 01:04:37;;;;;;;11.48;10.38;;;;;;;;;;10355251;28;20040;-65
2022/04/29 01:09:36;;;;;;;10.23;9.32;;;;;;;;;;10353108;28;20059;-65
2022/04/29 01:14:36;;;;;;;12.00;10.35;;;;;;;;;;10354585;28;20076;-65
2022/04/29 01:19:34;;;;;;;11.25;10.15;;;;;;;;;;10353201;28;20044;-65
2022/04/29 01:24:35;;;;;;;11.45;10.27;;;;;;;;;;10354855;28;20059;-65
2022/04/29 01:29:34;;;;;;;10.90;9.68;;;;;;;;;;10353527;28;20052;-65
2022/04/29 01:34:33;;;;;;;12.35;10.20;;;;;;;;;;10352711;28;20066;-65
2022/04/29 01:39:31;;;;;;;11.55;10.15;;;;;;;;;;10353221;28;20056;-64
2022/04/29 01:44:31;;;;;;;11.10;10.00;;;;;;;;;;10353085;28;20524;-65
2022/04/29 01:49:29;;;;;;;11.05;9.93;;;;;;;;;;10352398;28;20055;-65
2022/04/29 01:54:31;;;;;;;11.40;10.23;;;;;;;;;;10352118;28;20532;-65
2022/04/29 01:59:33;;;;;;;11.32;10.23;;;;;;;;;;10351713;28;20052;-65
2022/04/29 02:04:49;;;;;;;10.85;9.75;;;;;;;;;;10363460;28;20080;-64
2022/04/29 02:09:49;;;;;;;11.20;10.20;;;;;;;;;;10357299;28;20052;-65
2022/04/29 02:14:49;;;;;;;15.52;12.07;;;;;;;;;;10359687;28;20052;-64
2022/04/29 02:19:51;;;;;;;12.50;11.30;;;;;;;;;;10359783;28;20048;-65
2022/04/29 02:24:50;;;;;;;13.73;12.43;;;;;;;;;;10359083;28;20044;-65
2022/04/29 02:29:49;;;;;;;14.13;12.73;;;;;;;;;;10359572;28;20052;-64
2022/04/29 02:34:49;;;;;;;15.27;13.77;;;;;;;;;;10358371;28;20052;-65
2022/04/29 02:39:48;;;;;;;15.38;13.70;;;;;;;;;;10358914;28;20079;-65
2022/04/29 02:44:46;;;;;;;15.63;13.95;;;;;;;;;;10358350;28;20048;-65
2022/04/29 02:49:48;;;;;;;14.88;13.45;;;;;;;;;;10359999;28;20044;-64
2022/04/29 02:54:46;;;;;;;14.90;13.50;;;;;;;;;;10358279;28;20083;-64
2022/04/29 03:00:16;;;;;;;18.92;14.73;;;;;;;;;;10356737;28;20063;-64
2022/04/29 03:05:15;;;;;;;16.25;14.65;;;;;;;;;;10358678;28;20052;-65
2022/04/29 03:10:14;;;;;;;19.75;14.15;;;;;;;;;;10358466;28;20546;-64
2022/04/29 03:15:19;;;;;;;15.80;13.93;;;;;;;;;;10356355;28;20063;-65
2022/04/29 03:20:23;;;;;;;16.83;15.23;;;;;;;;;;10356941;28;20421;-64
2022/04/29 03:25:21;;;;;;;16.85;15.05;;;;;;;;;;10359176;28;20039;-64
2022/04/29 03:30:20;;;;;;;15.38;13.82;;;;;;;;;;10357404;28;20068;-65
2022/04/29 03:35:20;;;;;;;17.85;16.05;;;;;;;;;;10354931;28;20637;-65
2022/04/29 03:40:21;;;;;;;17.38;15.68;;;;;;;;;;10355126;28;20346;-65
2022/04/29 03:45:21;;;;;;;16.45;14.85;;;;;;;;;;10348388;28;20146;-65
2022/04/29 03:50:23;;;;;;;17.73;16.05;;;;;;;;;;10352098;28;20124;-65
2022/04/29 03:55:42;;;;;;;17.45;15.65;;;;;;;;;;10352046;28;20075;-65
2022/04/29 04:00:41;;;;;;;18.38;16.27;;;;;;;;;;10354700;28;20051;-64
2022/04/29 04:06:49;;;;;;;17.27;15.50;;;;;;;;;;10354420;28;20047;-65
2022/04/29 04:11:01;;;;;;;20.77;18.65;;;;;;;;;;10352126;28;20453;-65
2022/04/29 04:16:00;;;;;;;17.02;15.27;;;;;;;;;;10355276;28;20075;-65
2022/04/29 04:20:58;;;;;;;18.58;13.88;;;;;;;;;;10353966;28;20073;-65
2022/04/29 04:25:57;;;;;;;18.35;16.33;;;;;;;;;;10355789;28;20497;-64
2022/04/29 04:30:57;;;;;;;17.52;15.38;;;;;;;;;;10355110;28;20043;-64
2022/04/29 04:36:05;;;;;;;17.45;15.65;;;;;;;;;;10355728;28;20067;-64
2022/04/29 04:41:03;;;;;;;17.67;15.60;;;;;;;;;;10353972;28;20047;-64
2022/04/29 04:46:06;;;;;;;21.73;16.40;;;;;;;;;;10352027;28;20453;-65
2022/04/29 04:51:10;;;;;;;16.98;15.35;;;;;;;;;;10360066;28;20075;-64
2022/04/29 04:56:15;;;;;;;18.10;14.88;;;;;;;;;;10352193;28;20496;-65
2022/04/29 05:01:15;;;;;;;18.83;14.95;;;;;;;;;;10348694;28;20071;-64
2022/04/29 05:06:32;;;;;;;18.35;14.93;;;;;;;;;;10355540;28;20644;-65
2022/04/29 05:11:30;;;;;;;24.88;15.80;;;;;;;;;;10352558;28;20060;-65
2022/04/29 05:17:13;;;;;;;19.05;17.10;;;;;;;;;;10348891;28;20076;-65
2022/04/29 05:22:29;;;;;;;16.40;14.35;;;;;;;;;;10354584;28;20075;-65
2022/04/29 05:27:28;;;;;;;15.40;13.57;;;;;;;;;;10352373;28;20044;-64
2022/04/29 05:32:46;;;;;;;16.40;14.73;;;;;;;;;;10354589;28;20052;-64
2022/04/29 05:38:03;;;;;;;15.90;13.15;;;;;;;;;;10355996;28;20513;-64
2022/04/29 05:43:02;;;;;;;20.35;15.57;;;;;;;;;;10355284;28;20063;-64
2022/04/29 05:48:06;;;;;;;16.10;14.40;;;;;;;;;;10359136;28;20052;-64
2022/04/29 05:53:05;;;;;;;18.17;16.27;;;;;;;;;;10358963;28;20500;-64
2022/04/29 05:58:06;;;;;;;16.25;14.40;;;;;;;;;;10355524;28;20079;-64
2022/04/29 06:03:07;;;;;;;13.93;12.63;;;;;;;;;;10355476;28;20161;-64
2022/04/29 06:08:07;;;;;;;17.73;15.27;;;;;;;;;;10355199;28;20051;-64
2022/04/29 06:13:11;;;;;;;19.55;14.27;;;;;;;;;;10355971;28;20048;-64
2022/04/29 06:18:32;;;;;;;17.73;14.25;;;;;;;;;;10358973;28;20087;-64
2022/04/29 06:23:49;;;;;;;16.25;14.60;;;;;;;;;;10371918;28;20075;-65
2022/04/29 06:28:49;;;;;;;16.08;14.50;;;;;;;;;;10354687;28;20050;-65
2022/04/29 06:33:50;;;;;;;18.60;14.80;;;;;;;;;;10355581;28;20071;-65
2022/04/29 06:38:49;;;;;;;16.73;15.02;;;;;;;;;;10356702;28;20079;-64
2022/04/29 06:44:06;;;;;;;17.40;14.65;;;;;;;;;;10369690;28;20048;-64
2022/04/29 06:49:24;;;;;;;16.95;15.25;;;;;;;;;;10364038;28;20505;-64
2022/04/29 06:54:24;;;;;;;17.67;15.85;;;;;;;;;;10366746;28;20441;-64
2022/04/29 06:59:31;;;;;;;15.57;14.07;;;;;;;;;;10353916;28;20075;-65
2022/04/29 07:04:32;;;;;;;19.75;16.58;;;;;;;;;;10353808;28;20507;-65
2022/04/29 07:09:31;;;;;;;16.80;15.10;;;;;;;;;;10357121;28;20056;-65
2022/04/29 07:15:09;;;;;;;18.65;16.77;;;;;;;;;;10365470;28;20509;-65
2022/04/29 07:20:10;;;;;;;49.78;38.53;;;;;;;;;;10355178;28;20075;-64
2022/04/29 07:25:10;;;;;;;32.08;25.35;;;;;;;;;;10357589;28;20635;-65
2022/04/29 07:30:10;;;;;;;23.98;21.58;;;;;;;;;;10353899;28;20075;-65
2022/04/29 07:46:10;;;;;;;46.30;38.40;;;;;;;;;;10347124;28;20084;-65
2022/04/29 07:51:42;;;;;;;25.15;22.73;;;;;;;;;;10333372;28;20692;-65
2022/04/29 07:56:41;;;;;;;20.80;18.88;;;;;;;;;;10352142;28;20509;-65
2022/04/29 08:01:43;;;;;;;20.67;18.58;;;;;;;;;;10351797;28;20091;-65
2022/04/29 08:06:44;;;;;;;18.90;16.92;;;;;;;;;;10344914;28;20425;-65
2022/04/29 08:12:06;;;;;;;18.23;16.33;;;;;;;;;;10353525;28;20051;-65
2022/04/29 08:17:05;;;;;;;17.05;15.25;;;;;;;;;;10358109;28;20072;-65
2022/04/29 08:22:12;;;;;;;15.00;13.70;;;;;;;;;;10353385;28;20477;-65
2022/04/29 08:27:12;;;;;;;15.82;14.45;;;;;;;;;;10346934;28;20472;-65
2022/04/29 08:32:11;;;;;;;13.35;11.95;;;;;;;;;;10345108;28;20394;-64
2022/04/29 08:37:12;;;;;;;12.88;11.40;;;;;;;;;;10365138;28;20166;-65
2022/04/29 08:42:17;;;;;;;;;;;;;;;;;;10352074;28;20075;-65
2022/04/29 08:47:18;;;;;;;15.55;13.80;;;;;;;;;;10354049;28;19919;-65
2022/04/29 08:52:28;;;;;;;14.45;13.15;;;;;;;;;;10351260;28;20060;-65
2022/04/29 09:02:45;;;;;;;16.95;14.30;;;;;;;;;;10355929;28;20072;-64
2022/04/29 09:07:56;;;;;;;16.98;14.32;;;;;;;;;;10349734;28;20068;-65
2022/04/29 09:12:55;;;;;;;15.10;13.70;;;;;;;;;;10351093;28;20083;-65
2022/04/29 09:17:54;;;;;;;13.50;12.10;;;;;;;;;;10356856;28;20079;-65
2022/04/29 09:22:53;;;;;;;13.68;12.35;;;;;;;;;;10363471;28;20044;-65
2022/04/29 09:28:15;;;;;;;10.27;9.15;;;;;;;;;;10358345;28;20071;-65
2022/04/29 09:33:40;;;;;;;11.68;10.68;;;;;;;;;;10351973;28;20071;-65
2022/04/29 09:44:25;;;;;;;10.55;9.52;;;;;;;;;;10363246;28;20618;-65
2022/04/29 09:49:29;;;;;;;9.68;8.82;;;;;;;;;;10362461;28;20063;-64
2022/04/29 09:54:27;;;;;;;10.45;9.35;;;;;;;;;;10362628;28;20064;-65
2022/04/29 09:59:27;;;;;;;9.45;8.55;;;;;;;;;;10360609;28;20071;-65
2022/04/29 10:04:26;;;;;;;10.75;8.75;;;;;;;;;;10360431;28;20060;-65
2022/04/29 10:09:30;;;;;;;9.07;8.18;;;;;;;;;;10359268;28;20425;-64
2022/04/29 10:14:29;;;;;;;6.78;6.10;;;;;;;;;;10359825;28;20075;-65
2022/04/29 10:25:13;;;;;;;8.05;6.65;;;;;;;;;;10338841;28;20059;-65
2022/04/29 10:30:12;;;;;;;8.05;6.43;;;;;;;;;;10360108;28;20040;-64
2022/04/29 10:35:26;;;;;;;7.80;7.07;;;;;;;;;;10360554;28;20383;-65
2022/04/29 10:40:30;;;;;;;6.47;5.88;;;;;;;;;;10358971;28;20543;-66
2022/04/29 10:45:28;;;;;;;;;;;;;;;;;;10360809;28;20055;-65
2022/04/29 10:50:36;;;;;;;6.50;6.00;;;;;;;;;;10359025;28;19969;-65
2022/04/29 10:55:55;;;;;;;9.07;7.35;;;;;;;;;;10367324;28;20055;-65
2022/04/29 11:01:24;;;;;;;7.18;6.53;;;;;;;;;;10361239;28;20052;-65
2022/04/29 11:06:35;;;;;;;10.10;9.10;;;;;;;;;;10361086;28;20524;-65
2022/04/29 11:11:44;;;;;;;11.82;8.82;;;;;;;;;;10358069;28;20056;-65
2022/04/29 11:17:08;;;;;;;6.20;5.70;;;;;;;;;;10361373;28;20123;-65
2022/04/29 11:27:37;;;;;;;6.28;4.25;;;;;;;;;;10354713;28;20052;-64
2022/04/29 11:32:45;;;;;;;6.82;4.25;;;;;;;;;;10355998;28;20044;-65
2022/04/29 11:37:46;;;;;;;4.35;3.95;;;;;;;;;;10357926;28;20076;-66
2022/04/29 11:42:51;;;;;;;4.55;4.15;;;;;;;;;;10356756;28;20051;-65
2022/04/29 11:47:49;;;;;;;5.88;4.22;;;;;;;;;;10357779;28;20088;-65
2022/04/29 11:52:47;;;;;;;4.63;3.95;;;;;;;;;;10357980;28;20048;-65
2022/04/29 11:57:46;;;;;;;8.85;5.97;;;;;;;;;;10357514;28;20511;-65
2022/04/29 12:02:47;;;;;;;7.25;5.95;;;;;;;;;;10357505;28;20454;-65
2022/04/29 12:07:47;;;;;;;5.00;4.32;;;;;;;;;;10355166;28;20457;-65
2022/04/29 12:12:59;;;;;;;4.93;4.53;;;;;;;;;;10356617;28;20122;-65
2022/04/29 12:18:06;;;;;;;5.75;3.83;;;;;;;;;;10347429;28;20081;-65
2022/04/29 12:23:19;;;;;;;4.82;4.10;;;;;;;;;;10350465;28;20043;-65
2022/04/29 12:28:19;;;;;;;4.72;4.15;;;;;;;;;;10356181;28;20060;-65
2022/04/29 12:38:36;;;;;;;8.40;4.00;;;;;;;;;;10354568;28;20095;-65
2022/04/29 12:43:41;;;;;;;3.85;3.47;;;;;;;;;;10354026;28;20052;-65
2022/04/29 12:48:45;;;;;;;7.50;3.30;;;;;;;;;;10355996;28;20394;-65
2022/04/29 12:53:44;;;;;;;3.95;3.55;;;;;;;;;;10354791;28;20075;-65
2022/04/29 12:58:45;;;;;;;3.88;3.47;;;;;;;;;;10354188;28;20084;-65
2022/04/29 13:03:50;;;;;;;5.65;3.72;;;;;;;;;;10354557;28;20497;-65
2022/04/29 13:09:04;;;;;;;3.80;3.50;;;;;;;;;;10353678;28;20276;-65
2022/04/29 13:14:04;;;;;;;4.43;3.63;;;;;;;;;;10354106;28;20480;-65
2022/04/29 13:19:04;;;;;;;4.55;4.15;;;;;;;;;;10353864;28;20083;-65
2022/04/29 13:24:02;;;;;;;5.75;3.97;;;;;;;;;;10353663;28;20048;-65
2022/04/29 13:29:08;;;;;;;5.10;3.90;;;;;;;;;;10344843;28;20052;-65
2022/04/29 13:34:08;;;;;;;4.10;3.65;;;;;;;;;;10354747;28;20516;-65
2022/04/29 13:39:07;;;;;;;6.10;3.92;;;;;;;;;;10355353;28;20076;-65
2022/04/29 13:44:15;;;;;;;12.52;10.45;;;;;;;;;;10353160;28;20052;-65
2022/04/29 13:49:14;;;;;;;17.33;11.18;;;;;;;;;;10355367;28;20047;-65
2022/04/29 13:54:13;;;;;;;8.65;5.90;;;;;;;;;;10355893;28;20090;-65
2022/04/29 13:59:11;;;;;;;8.75;5.90;;;;;;;;;;10354320;28;20083;-65
2022/04/29 14:04:09;;;;;;;10.48;7.25;;;;;;;;;;10355316;28;20048;-65
2022/04/29 14:09:10;;;;;;;7.80;6.93;;;;;;;;;;10362057;28;20063;-65
2022/04/29 14:14:08;;;;;;;5.38;4.82;;;;;;;;;;10359543;28;20056;-65
2022/04/29 14:19:06;;;;;;;14.13;11.60;;;;;;;;;;10361280;28;20166;-65
2022/04/29 14:24:05;;;;;;;10.48;6.93;;;;;;;;;;10360710;28;20044;-65
2022/04/29 14:29:04;;;;;;;17.02;14.52;;;;;;;;;;10360825;28;20083;-64
2022/04/29 14:34:03;;;;;;;14.65;12.45;;;;;;;;;;10359412;28;20079;-65
2022/04/29 14:39:01;;;;;;;23.95;20.20;;;;;;;;;;10359676;28;20477;-65
2022/04/29 14:44:00;;;;;;;8.23;5.72;;;;;;;;;;10360045;28;20051;-64
2022/04/29 14:49:00;;;;;;;7.38;6.45;;;;;;;;;;10360697;28;20055;-65
2022/04/29 14:53:59;;;;;;;8.60;4.65;;;;;;;;;;10360623;28;20036;-65
2022/04/29 14:58:58;;;;;;;5.13;3.63;;;;;;;;;;10359744;28;20151;-65
2022/04/29 15:03:57;;;;;;;4.38;3.97;;;;;;;;;;10360301;28;20414;-65
2022/04/29 15:19:26;;;;;;;10.85;4.18;;;;;;;;;;10359230;28;20071;-64
2022/04/29 15:24:26;;;;;;;5.25;4.25;;;;;;;;;;10356773;28;20071;-64
2022/04/29 15:29:25;;;;;;;9.55;6.75;;;;;;;;;;10356545;28;20503;-65
2022/04/29 15:34:24;;;;;;;5.57;3.70;;;;;;;;;;10358072;28;20074;-65
2022/04/29 15:39:22;;;;;;;7.72;4.25;;;;;;;;;;10357980;28;20090;-64
2022/04/29 15:44:21;;;;;;;11.35;4.03;;;;;;;;;;10357557;28;20071;-66
2022/04/29 15:49:20;;;;;;;7.78;6.13;;;;;;;;;;10355654;28;20128;-64
2022/04/29 15:54:18;;;;;;;4.68;4.00;;;;;;;;;;10353996;28;20408;-65
2022/04/29 15:59:17;;;;;;;6.07;5.47;;;;;;;;;;10356646;28;20076;-65
2022/04/29 16:04:16;;;;;;;4.72;3.78;;;;;;;;;;10356529;28;20040;-65
2022/04/29 16:09:15;;;;;;;3.20;2.90;;;;;;;;;;10356335;28;20059;-66
2022/04/29 16:14:13;;;;;;;8.48;4.93;;;;;;;;;;10355421;28;20051;-65
2022/04/29 16:29:44;;;;;;;3.92;3.63;;;;;;;;;;10351258;28;20063;-65
2022/04/29 16:34:43;;;;;;;4.28;3.47;;;;;;;;;;10348554;28;20427;-65
2022/04/29 16:39:43;;;;;;;48.67;23.05;;;;;;;;;;10349509;28;20075;-65
2022/04/29 16:44:43;;;;;;;28.10;16.73;;;;;;;;;;10347652;28;20068;-65
2022/04/29 16:49:42;;;;;;;5.28;3.58;;;;;;;;;;10353815;28;20512;-64
2022/04/29 16:54:41;;;;;;;5.65;4.18;;;;;;;;;;10354574;28;20153;-65
2022/04/29 16:59:41;;;;;;;3.30;3.00;;;;;;;;;;10352408;28;20071;-65
2022/04/29 17:04:40;;;;;;;13.50;4.65;;;;;;;;;;10353032;28;20067;-65
2022/04/29 17:09:38;;;;;;;4.13;3.70;;;;;;;;;;10351915;28;20086;-63
2022/04/29 17:14:37;;;;;;;8.45;4.95;;;;;;;;;;10350584;28;20501;-65
2022/04/29 17:19:36;;;;;;;6.88;4.47;;;;;;;;;;10350735;28;20476;-65
2022/04/29 17:24:35;;;;;;;4.82;4.32;;;;;;;;;;10351249;28;20078;-65
2022/04/29 17:29:34;;;;;;;5.13;4.63;;;;;;;;;;10347905;28;20453;-63
2022/04/29 17:34:32;;;;;;;5.85;5.28;;;;;;;;;;10350094;28;20329;-65
2022/04/29 17:44:50;;;;;;;5.55;3.63;;;;;;;;;;10360497;28;20072;-65
2022/04/29 17:55:02;;;;;;;5.65;4.43;;;;;;;;;;10357036;28;20063;-65
2022/04/29 18:00:00;;;;;;;6.63;4.00;;;;;;;;;;10359252;28;20071;-64
2022/04/29 18:04:59;;;;;;;7.00;5.10;;;;;;;;;;10357441;28;20071;-64
2022/04/29 18:09:57;;;;;;;4.47;3.60;;;;;;;;;;10358458;28;20064;-65
2022/04/29 18:14:58;;;;;;;5.30;3.80;;;;;;;;;;10352111;28;20064;-65
2022/04/29 18:19:58;;;;;;;4.43;4.03;;;;;;;;;;10353121;28;20067;-64
2022/04/29 18:24:57;;;;;;;6.38;5.03;;;;;;;;;;10352869;28;20059;-65
2022/04/29 18:29:57;;;;;;;4.30;3.80;;;;;;;;;;10357674;28;20060;-65
2022/04/29 18:34:55;;;;;;;4.60;3.97;;;;;;;;;;10354919;28;20055;-64
2022/04/29 18:39:53;;;;;;;6.43;3.45;;;;;;;;;;10355546;28;20074;-64
2022/04/29 18:44:51;;;;;;;5.13;4.45;;;;;;;;;;10357719;28;20059;-64
2022/04/29 18:49:51;;;;;;;8.32;4.65;;;;;;;;;;10357512;28;20084;-65
2022/04/29 18:54:49;;;;;;;7.07;5.45;;;;;;;;;;10356645;28;20086;-64
2022/04/29 18:59:47;;;;;;;7.43;4.88;;;;;;;;;;10355077;28;20076;-64
2022/04/29 19:04:46;;;;;;;6.43;4.60;;;;;;;;;;10356823;28;20060;-64
2022/04/29 19:09:46;;;;;;;12.35;7.35;;;;;;;;;;10353074;28;20076;-64
2022/04/29 19:14:44;;;;;;;8.05;5.03;;;;;;;;;;10355444;28;20071;-63
2022/04/29 19:19:43;;;;;;;7.35;5.18;;;;;;;;;;10354671;28;20079;-64
2022/04/29 19:24:41;;;;;;;11.00;7.18;;;;;;;;;;10354145;28;20070;-63
2022/04/29 19:29:41;;;;;;;10.18;6.85;;;;;;;;;;10355767;28;20071;-63
2022/04/29 19:34:41;;;;;;;10.60;6.47;;;;;;;;;;10354515;28;20067;-63
2022/04/29 19:39:40;;;;;;;10.85;6.25;;;;;;;;;;10354543;28;20083;-64
2022/04/29 19:44:38;;;;;;;8.07;5.65;;;;;;;;;;10354998;28;20079;-64
2022/04/29 19:49:38;;;;;;;11.68;7.40;;;;;;;;;;10354293;28;20071;-65
2022/04/29 19:54:37;;;;;;;10.70;7.25;;;;;;;;;;10355565;28;20493;-64
2022/04/29 19:59:35;;;;;;;13.75;8.23;;;;;;;;;;10355213;28;20064;-63
2022/04/29 20:04:34;;;;;;;9.98;6.53;;;;;;;;;;10354529;28;20448;-64
2022/04/29 20:09:36;;;;;;;9.73;7.05;;;;;;;;;;10356353;28;20080;-64
2022/04/29 20:14:35;;;;;;;7.13;5.13;;;;;;;;;;10356737;28;20064;-63
2022/04/29 20:19:34;;;;;;;6.50;5.30;;;;;;;;;;10355273;28;20527;-64
2022/04/29 20:24:33;;;;;;;5.95;4.60;;;;;;;;;;10351918;28;20099;-63
2022/04/29 20:29:32;;;;;;;6.60;4.78;;;;;;;;;;10355361;28;20082;-64
2022/04/29 20:34:31;;;;;;;5.05;4.38;;;;;;;;;;10355070;28;20094;-63
2022/04/29 20:44:47;;;;;;;5.90;4.75;;;;;;;;;;10353957;28;20039;-64
2022/04/29 20:49:46;;;;;;;8.43;5.95;;;;;;;;;;10355241;28;20079;-62
2022/04/29 20:54:44;;;;;;;7.68;5.97;;;;;;;;;;10354430;28;20076;-63
2022/04/29 20:59:43;;;;;;;8.65;5.28;;;;;;;;;;10363698;28;20051;-64
2022/04/29 21:04:43;;;;;;;5.63;4.63;;;;;;;;;;10355768;28;20079;-64
2022/04/29 21:09:42;;;;;;;6.82;5.82;;;;;;;;;;10355858;28;20095;-63
2022/04/29 21:14:40;;;;;;;8.05;5.65;;;;;;;;;;10354572;28;20055;-63
2022/04/29 21:19:39;;;;;;;6.35;5.68;;;;;;;;;;10355080;28;20416;-64
2022/04/29 21:24:40;;;;;;;7.85;5.45;;;;;;;;;;10354192;28;20083;-64
2022/04/29 21:34:54;;;;;;;;;;;;;;;;;;10355503;28;20064;-64
2022/04/29 21:39:53;;;;;;;8.55;5.60;;;;;;;;;;10354641;28;19951;-64
2022/04/29 21:44:52;;;;;;;10.45;7.75;;;;;;;;;;10353390;28;20075;-63
2022/04/29 21:49:50;;;;;;;8.38;5.50;;;;;;;;;;10354659;28;20086;-63
2022/04/29 21:54:49;;;;;;;5.97;5.43;;;;;;;;;;10354615;28;20071;-64
2022/04/29 21:59:48;;;;;;;7.53;5.97;;;;;;;;;;10353717;28;20048;-64
2022/04/29 22:04:46;;;;;;;7.65;5.95;;;;;;;;;;10354020;28;20074;-65
2022/04/29 22:09:45;;;;;;;7.85;7.15;;;;;;;;;;10352005;28;20076;-64
2022/04/29 22:14:43;;;;;;;8.82;7.80;;;;;;;;;;10352698;28;20067;-63
2022/04/29 22:19:43;;;;;;;11.05;7.68;;;;;;;;;;10354059;28;20075;-64
2022/04/29 22:24:41;;;;;;;9.23;8.18;;;;;;;;;;10355916;28;20059;-64
2022/04/29 22:29:40;;;;;;;12.60;9.75;;;;;;;;;;10362166;28;20051;-63
2022/04/29 22:34:39;;;;;;;13.63;11.15;;;;;;;;;;10361227;28;20079;-64
2022/04/29 22:39:39;;;;;;;16.02;11.75;;;;;;;;;;10360844;28;20064;-64
2022/04/29 22:44:38;;;;;;;16.08;12.80;;;;;;;;;;10360680;28;20071;-63
2022/04/29 22:49:37;;;;;;;15.25;12.73;;;;;;;;;;10360632;28;20071;-64
2022/04/29 22:54:35;;;;;;;17.45;12.35;;;;;;;;;;10360229;28;20055;-63
2022/04/29 22:59:35;;;;;;;17.20;12.45;;;;;;;;;;10360145;28;20075;-63
2022/04/29 23:04:33;;;;;;;17.63;12.68;;;;;;;;;;10359715;28;20079;-63
2022/04/29 23:09:33;;;;;;;13.45;12.05;;;;;;;;;;10358886;28;20540;-63
2022/04/29 23:14:31;;;;;;;11.50;10.13;;;;;;;;;;10359586;28;20072;-63
2022/04/29 23:19:31;;;;;;;11.60;7.53;;;;;;;;;;10359210;28;20421;-63
2022/04/29 23:24:30;;;;;;;9.32;7.93;;;;;;;;;;10358340;28;20078;-63
2022/04/29 23:29:28;;;;;;;11.75;9.52;;;;;;;;;;10358879;28;20063;-63
2022/04/29 23:34:26;;;;;;;15.05;10.73;;;;;;;;;;10358953;28;20036;-63
2022/04/29 23:39:26;;;;;;;12.48;9.75;;;;;;;;;;10358418;28;20421;-63
2022/04/29 23:44:25;;;;;;;9.65;8.02;;;;;;;;;;10353574;28;20079;-63
2022/04/29 23:49:24;;;;;;;7.82;7.03;;;;;;;;;;10354944;28;20288;-63
2022/04/29 23:54:22;;;;;;;8.05;6.20;;;;;;;;;;10355932;28;20075;-64
2022/04/29 23:59:21;;;;;;;6.32;5.72;;;;;;;;;;10355427;28;20064;-63
